sensor_id;sensor_type;location;lat;lon;timestamp;P1;durP1;ratioP1;P2;durP2;ratioP2
44824;SDS011;30542;47.928;2.138;2022-09-14T00:03:29;2.38;;;1.20;;
44824;SDS011;30542;47.928;2.138;2022-09-14T00:08:29;4.43;;;1.13;;
44824;SDS011;30542;47.928;2.138;2022-09-14T00:13:30;3.73;;;1.40;;
44824;SDS011;30542;47.928;2.138;2022-09-14T00:18:31;2.90;;;1.20;;
44824;SDS011;30542;47.928;2.138;2022-09-14T00:23:36;2.60;;;1.40;;
44824;SDS011;30542;47.928;2.138;2022-09-14T00:28:48;3.85;;;1.20;;
44824;SDS011;30542;47.928;2.138;2022-09-14T00:33:52;2.55;;;1.10;;
44824;SDS011;30542;47.928;2.138;2022-09-14T00:38:53;2.65;;;1.10;;
44824;SDS011;30542;47.928;2.138;2022-09-14T00:48:59;4.32;;;1.38;;
44824;SDS011;30542;47.928;2.138;2022-09-14T00:54:01;4.85;;;1.40;;
44824;SDS011;30542;47.928;2.138;2022-09-14T00:59:05;4.60;;;1.27;;
44824;SDS011;30542;47.928;2.138;2022-09-14T01:04:11;4.80;;;1.40;;
44824;SDS011;30542;47.928;2.138;2022-09-14T01:19:54;1.40;;;1.00;;
44824;SDS011;30542;47.928;2.138;2022-09-14T01:30:31;4.75;;;1.10;;
44824;SDS011;30542;47.928;2.138;2022-09-14T01:35:35;4.30;;;1.08;;
44824;SDS011;30542;47.928;2.138;2022-09-14T01:40:43;3.83;;;1.40;;
44824;SDS011;30542;47.928;2.138;2022-09-14T01:45:48;2.75;;;1.20;;
44824;SDS011;30542;47.928;2.138;2022-09-14T01:50:52;6.72;;;1.33;;
44824;SDS011;30542;47.928;2.138;2022-09-14T02:01:18;3.20;;;1.13;;
44824;SDS011;30542;47.928;2.138;2022-09-14T02:11:30;3.83;;;1.38;;
44824;SDS011;30542;47.928;2.138;2022-09-14T02:16:31;2.28;;;1.27;;
44824;SDS011;30542;47.928;2.138;2022-09-14T02:21:32;3.05;;;1.00;;
44824;SDS011;30542;47.928;2.138;2022-09-14T02:26:33;3.25;;;1.13;;
44824;SDS011;30542;47.928;2.138;2022-09-14T02:47:12;4.40;;;1.23;;
44824;SDS011;30542;47.928;2.138;2022-09-14T02:52:38;2.45;;;1.10;;
44824;SDS011;30542;47.928;2.138;2022-09-14T02:57:57;5.03;;;1.35;;
44824;SDS011;30542;47.928;2.138;2022-09-14T03:03:05;5.95;;;1.60;;
44824;SDS011;30542;47.928;2.138;2022-09-14T03:08:07;7.70;;;1.52;;
44824;SDS011;30542;47.928;2.138;2022-09-14T03:13:09;3.15;;;1.38;;
44824;SDS011;30542;47.928;2.138;2022-09-14T03:18:10;3.20;;;1.10;;
44824;SDS011;30542;47.928;2.138;2022-09-14T03:23:12;4.40;;;1.45;;
44824;SDS011;30542;47.928;2.138;2022-09-14T03:28:12;2.72;;;1.10;;
44824;SDS011;30542;47.928;2.138;2022-09-14T03:33:13;3.70;;;1.20;;
44824;SDS011;30542;47.928;2.138;2022-09-14T03:38:14;5.00;;;1.05;;
44824;SDS011;30542;47.928;2.138;2022-09-14T03:43:14;4.30;;;1.13;;
44824;SDS011;30542;47.928;2.138;2022-09-14T03:48:15;4.30;;;1.23;;
44824;SDS011;30542;47.928;2.138;2022-09-14T03:53:15;3.45;;;1.00;;
44824;SDS011;30542;47.928;2.138;2022-09-14T03:58:16;3.93;;;1.00;;
44824;SDS011;30542;47.928;2.138;2022-09-14T04:03:16;3.30;;;1.20;;
44824;SDS011;30542;47.928;2.138;2022-09-14T04:08:17;3.70;;;0.95;;
44824;SDS011;30542;47.928;2.138;2022-09-14T04:13:17;2.10;;;0.90;;
44824;SDS011;30542;47.928;2.138;2022-09-14T04:18:18;2.50;;;1.17;;
44824;SDS011;30542;47.928;2.138;2022-09-14T04:23:18;2.67;;;1.03;;
44824;SDS011;30542;47.928;2.138;2022-09-14T04:28:19;2.80;;;1.13;;
44824;SDS011;30542;47.928;2.138;2022-09-14T04:33:20;1.58;;;0.82;;
44824;SDS011;30542;47.928;2.138;2022-09-14T04:38:21;2.88;;;1.00;;
44824;SDS011;30542;47.928;2.138;2022-09-14T04:43:22;4.57;;;1.30;;
44824;SDS011;30542;47.928;2.138;2022-09-14T04:48:23;2.78;;;0.90;;
44824;SDS011;30542;47.928;2.138;2022-09-14T04:53:23;3.00;;;1.00;;
44824;SDS011;30542;47.928;2.138;2022-09-14T04:58:23;3.83;;;1.00;;
44824;SDS011;30542;47.928;2.138;2022-09-14T05:03:24;2.87;;;1.37;;
44824;SDS011;30542;47.928;2.138;2022-09-14T05:08:24;3.47;;;0.90;;
44824;SDS011;30542;47.928;2.138;2022-09-14T05:13:24;4.77;;;0.90;;
44824;SDS011;30542;47.928;2.138;2022-09-14T05:18:25;2.77;;;0.80;;
44824;SDS011;30542;47.928;2.138;2022-09-14T05:23:26;3.75;;;0.95;;
44824;SDS011;30542;47.928;2.138;2022-09-14T05:28:27;3.47;;;0.90;;
44824;SDS011;30542;47.928;2.138;2022-09-14T05:33:27;4.25;;;0.88;;
44824;SDS011;30542;47.928;2.138;2022-09-14T05:38:28;4.63;;;1.00;;
44824;SDS011;30542;47.928;2.138;2022-09-14T05:43:29;4.82;;;1.23;;
44824;SDS011;30542;47.928;2.138;2022-09-14T05:48:34;5.43;;;1.65;;
44824;SDS011;30542;47.928;2.138;2022-09-14T05:53:35;16.65;;;4.53;;
44824;SDS011;30542;47.928;2.138;2022-09-14T05:58:37;11.15;;;2.88;;
44824;SDS011;30542;47.928;2.138;2022-09-14T06:03:38;10.32;;;2.63;;
44824;SDS011;30542;47.928;2.138;2022-09-14T06:08:39;7.10;;;2.22;;
44824;SDS011;30542;47.928;2.138;2022-09-14T06:13:39;6.05;;;1.80;;
44824;SDS011;30542;47.928;2.138;2022-09-14T06:18:41;4.82;;;1.30;;
44824;SDS011;30542;47.928;2.138;2022-09-14T06:23:43;5.85;;;1.10;;
44824;SDS011;30542;47.928;2.138;2022-09-14T06:28:43;5.30;;;1.45;;
44824;SDS011;30542;47.928;2.138;2022-09-14T06:33:44;14.53;;;2.03;;
44824;SDS011;30542;47.928;2.138;2022-09-14T06:38:46;8.55;;;1.40;;
44824;SDS011;30542;47.928;2.138;2022-09-14T06:43:48;7.32;;;2.00;;
44824;SDS011;30542;47.928;2.138;2022-09-14T06:48:59;3.67;;;1.63;;
44824;SDS011;30542;47.928;2.138;2022-09-14T06:54:00;5.82;;;1.80;;
44824;SDS011;30542;47.928;2.138;2022-09-14T06:59:02;4.78;;;1.80;;
44824;SDS011;30542;47.928;2.138;2022-09-14T07:04:04;4.13;;;1.10;;
44824;SDS011;30542;47.928;2.138;2022-09-14T07:09:05;5.72;;;1.38;;
44824;SDS011;30542;47.928;2.138;2022-09-14T07:14:06;5.65;;;1.98;;
44824;SDS011;30542;47.928;2.138;2022-09-14T07:19:09;7.22;;;0.93;;
44824;SDS011;30542;47.928;2.138;2022-09-14T07:24:11;7.95;;;2.70;;
44824;SDS011;30542;47.928;2.138;2022-09-14T07:29:13;6.32;;;1.88;;
44824;SDS011;30542;47.928;2.138;2022-09-14T07:34:15;6.18;;;1.20;;
44824;SDS011;30542;47.928;2.138;2022-09-14T07:39:16;2.53;;;1.30;;
44824;SDS011;30542;47.928;2.138;2022-09-14T07:44:17;5.72;;;1.30;;
44824;SDS011;30542;47.928;2.138;2022-09-14T07:49:17;5.90;;;1.40;;
44824;SDS011;30542;47.928;2.138;2022-09-14T07:54:18;6.37;;;1.27;;
44824;SDS011;30542;47.928;2.138;2022-09-14T07:59:18;3.75;;;1.23;;
44824;SDS011;30542;47.928;2.138;2022-09-14T08:04:19;3.93;;;1.00;;
44824;SDS011;30542;47.928;2.138;2022-09-14T08:09:20;4.07;;;1.08;;
44824;SDS011;30542;47.928;2.138;2022-09-14T08:14:20;5.03;;;1.40;;
44824;SDS011;30542;47.928;2.138;2022-09-14T08:19:20;3.00;;;1.03;;
44824;SDS011;30542;47.928;2.138;2022-09-14T08:24:21;2.60;;;0.90;;
44824;SDS011;30542;47.928;2.138;2022-09-14T08:29:22;3.40;;;1.03;;
44824;SDS011;30542;47.928;2.138;2022-09-14T08:34:22;1.87;;;0.80;;
44824;SDS011;30542;47.928;2.138;2022-09-14T08:39:23;3.50;;;0.88;;
44824;SDS011;30542;47.928;2.138;2022-09-14T08:44:36;3.43;;;1.30;;
44824;SDS011;30542;47.928;2.138;2022-09-14T09:00:41;4.53;;;1.50;;
44824;SDS011;30542;47.928;2.138;2022-09-14T09:05:50;3.80;;;1.38;;
44824;SDS011;30542;47.928;2.138;2022-09-14T09:10:52;5.25;;;1.02;;
44824;SDS011;30542;47.928;2.138;2022-09-14T09:15:54;5.45;;;1.60;;
44824;SDS011;30542;47.928;2.138;2022-09-14T09:21:18;4.93;;;1.73;;
44824;SDS011;30542;47.928;2.138;2022-09-14T09:26:24;5.03;;;1.42;;
44824;SDS011;30542;47.928;2.138;2022-09-14T09:31:34;4.13;;;2.20;;
44824;SDS011;30542;47.928;2.138;2022-09-14T09:36:39;4.63;;;1.83;;
44824;SDS011;30542;47.928;2.138;2022-09-14T09:46:50;6.95;;;2.55;;
44824;SDS011;30542;47.928;2.138;2022-09-14T09:51:53;4.63;;;2.90;;
44824;SDS011;30542;47.928;2.138;2022-09-14T09:56:58;5.55;;;2.33;;
44824;SDS011;30542;47.928;2.138;2022-09-14T10:02:21;6.30;;;2.40;;
44824;SDS011;30542;47.928;2.138;2022-09-14T10:07:22;9.98;;;3.05;;
44824;SDS011;30542;47.928;2.138;2022-09-14T10:12:23;7.15;;;2.95;;
44824;SDS011;30542;47.928;2.138;2022-09-14T10:17:24;3.92;;;2.28;;
44824;SDS011;30542;47.928;2.138;2022-09-14T10:27:34;6.72;;;2.78;;
44824;SDS011;30542;47.928;2.138;2022-09-14T10:32:51;5.93;;;2.42;;
44824;SDS011;30542;47.928;2.138;2022-09-14T11:04:37;7.20;;;2.45;;
44824;SDS011;30542;47.928;2.138;2022-09-14T11:15:19;6.75;;;3.40;;
44824;SDS011;30542;47.928;2.138;2022-09-14T11:25:59;4.78;;;3.03;;
44824;SDS011;30542;47.928;2.138;2022-09-14T11:36:33;5.03;;;2.95;;
44824;SDS011;30542;47.928;2.138;2022-09-14T11:41:42;4.55;;;2.50;;
44824;SDS011;30542;47.928;2.138;2022-09-14T11:46:55;5.63;;;2.70;;
44824;SDS011;30542;47.928;2.138;2022-09-14T11:52:03;7.00;;;2.85;;
44824;SDS011;30542;47.928;2.138;2022-09-14T11:57:15;7.38;;;2.10;;
44824;SDS011;30542;47.928;2.138;2022-09-14T12:12:47;6.13;;;2.33;;
44824;SDS011;30542;47.928;2.138;2022-09-14T12:29:22;3.28;;;2.55;;
44824;SDS011;30542;47.928;2.138;2022-09-14T12:39:19;5.93;;;3.33;;
44824;SDS011;30542;47.928;2.138;2022-09-14T12:44:42;6.20;;;3.33;;
44824;SDS011;30542;47.928;2.138;2022-09-14T12:49:42;8.00;;;3.83;;
44824;SDS011;30542;47.928;2.138;2022-09-14T12:54:52;6.70;;;4.07;;
44824;SDS011;30542;47.928;2.138;2022-09-14T13:05:01;10.23;;;4.97;;
44824;SDS011;30542;47.928;2.138;2022-09-14T13:10:04;9.27;;;4.93;;
44824;SDS011;30542;47.928;2.138;2022-09-14T13:15:12;10.18;;;5.85;;
44824;SDS011;30542;47.928;2.138;2022-09-14T13:20:20;8.25;;;5.88;;
44824;SDS011;30542;47.928;2.138;2022-09-14T13:30:28;7.78;;;4.05;;
44824;SDS011;30542;47.928;2.138;2022-09-14T13:41:24;7.72;;;3.70;;
44824;SDS011;30542;47.928;2.138;2022-09-14T13:46:24;6.35;;;4.45;;
44824;SDS011;30542;47.928;2.138;2022-09-14T13:51:26;6.60;;;3.85;;
44824;SDS011;30542;47.928;2.138;2022-09-14T13:56:28;5.38;;;3.28;;
44824;SDS011;30542;47.928;2.138;2022-09-14T14:01:31;4.47;;;2.72;;
44824;SDS011;30542;47.928;2.138;2022-09-14T14:06:40;3.90;;;2.67;;
44824;SDS011;30542;47.928;2.138;2022-09-14T14:11:44;3.30;;;2.33;;
44824;SDS011;30542;47.928;2.138;2022-09-14T14:32:36;6.32;;;3.20;;
44824;SDS011;30542;47.928;2.138;2022-09-14T14:37:36;8.47;;;3.70;;
44824;SDS011;30542;47.928;2.138;2022-09-14T14:42:37;6.17;;;2.97;;
44824;SDS011;30542;47.928;2.138;2022-09-14T14:47:38;4.43;;;3.05;;
44824;SDS011;30542;47.928;2.138;2022-09-14T14:52:38;6.33;;;3.23;;
44824;SDS011;30542;47.928;2.138;2022-09-14T14:57:39;4.27;;;2.80;;
44824;SDS011;30542;47.928;2.138;2022-09-14T15:02:40;4.70;;;2.80;;
44824;SDS011;30542;47.928;2.138;2022-09-14T15:07:40;6.05;;;2.83;;
44824;SDS011;30542;47.928;2.138;2022-09-14T15:12:40;5.67;;;3.03;;
44824;SDS011;30542;47.928;2.138;2022-09-14T15:17:41;5.40;;;3.63;;
44824;SDS011;30542;47.928;2.138;2022-09-14T15:22:42;4.30;;;3.47;;
44824;SDS011;30542;47.928;2.138;2022-09-14T15:27:43;7.73;;;3.43;;
44824;SDS011;30542;47.928;2.138;2022-09-14T15:32:44;4.35;;;3.97;;
44824;SDS011;30542;47.928;2.138;2022-09-14T15:37:45;4.75;;;3.40;;
44824;SDS011;30542;47.928;2.138;2022-09-14T15:42:46;6.85;;;3.05;;
44824;SDS011;30542;47.928;2.138;2022-09-14T15:47:46;4.25;;;3.17;;
44824;SDS011;30542;47.928;2.138;2022-09-14T15:52:46;5.73;;;3.00;;
44824;SDS011;30542;47.928;2.138;2022-09-14T15:57:47;3.73;;;2.50;;
44824;SDS011;30542;47.928;2.138;2022-09-14T16:02:48;5.27;;;3.17;;
44824;SDS011;30542;47.928;2.138;2022-09-14T16:07:52;4.57;;;2.75;;
44824;SDS011;30542;47.928;2.138;2022-09-14T16:12:54;4.82;;;2.78;;
44824;SDS011;30542;47.928;2.138;2022-09-14T16:17:55;4.72;;;3.17;;
44824;SDS011;30542;47.928;2.138;2022-09-14T16:22:55;5.50;;;2.77;;
44824;SDS011;30542;47.928;2.138;2022-09-14T16:27:56;3.83;;;2.70;;
44824;SDS011;30542;47.928;2.138;2022-09-14T16:32:56;5.77;;;2.93;;
44824;SDS011;30542;47.928;2.138;2022-09-14T16:37:56;4.90;;;3.03;;
44824;SDS011;30542;47.928;2.138;2022-09-14T16:42:57;9.93;;;3.50;;
44824;SDS011;30542;47.928;2.138;2022-09-14T16:47:57;6.40;;;3.67;;
44824;SDS011;30542;47.928;2.138;2022-09-14T16:52:57;5.47;;;3.83;;
44824;SDS011;30542;47.928;2.138;2022-09-14T16:57:58;5.97;;;3.90;;
44824;SDS011;30542;47.928;2.138;2022-09-14T17:02:58;6.05;;;4.32;;
44824;SDS011;30542;47.928;2.138;2022-09-14T17:07:58;5.03;;;4.13;;
44824;SDS011;30542;47.928;2.138;2022-09-14T17:12:59;8.00;;;4.30;;
44824;SDS011;30542;47.928;2.138;2022-09-14T17:17:59;6.93;;;4.80;;
44824;SDS011;30542;47.928;2.138;2022-09-14T17:22:59;6.60;;;4.67;;
44824;SDS011;30542;47.928;2.138;2022-09-14T17:28:00;7.03;;;4.17;;
44824;SDS011;30542;47.928;2.138;2022-09-14T17:33:00;6.60;;;4.47;;
44824;SDS011;30542;47.928;2.138;2022-09-14T17:38:00;7.00;;;4.47;;
44824;SDS011;30542;47.928;2.138;2022-09-14T17:43:01;6.80;;;5.07;;
44824;SDS011;30542;47.928;2.138;2022-09-14T17:48:01;7.03;;;4.47;;
44824;SDS011;30542;47.928;2.138;2022-09-14T17:53:02;7.35;;;4.78;;
44824;SDS011;30542;47.928;2.138;2022-09-14T17:58:03;10.00;;;5.00;;
44824;SDS011;30542;47.928;2.138;2022-09-14T18:03:03;11.00;;;5.03;;
44824;SDS011;30542;47.928;2.138;2022-09-14T18:08:04;10.30;;;5.65;;
44824;SDS011;30542;47.928;2.138;2022-09-14T18:13:04;7.13;;;5.47;;
44824;SDS011;30542;47.928;2.138;2022-09-14T18:18:04;9.50;;;6.07;;
44824;SDS011;30542;47.928;2.138;2022-09-14T18:23:05;8.10;;;5.80;;
44824;SDS011;30542;47.928;2.138;2022-09-14T18:28:06;10.15;;;6.72;;
44824;SDS011;30542;47.928;2.138;2022-09-14T18:33:06;10.13;;;6.50;;
44824;SDS011;30542;47.928;2.138;2022-09-14T18:38:07;9.40;;;6.00;;
44824;SDS011;30542;47.928;2.138;2022-09-14T18:43:07;11.17;;;7.00;;
44824;SDS011;30542;47.928;2.138;2022-09-14T18:48:07;10.30;;;6.87;;
44824;SDS011;30542;47.928;2.138;2022-09-14T18:53:08;9.80;;;6.90;;
44824;SDS011;30542;47.928;2.138;2022-09-14T18:58:08;8.67;;;6.30;;
44824;SDS011;30542;47.928;2.138;2022-09-14T19:03:08;9.10;;;7.17;;
44824;SDS011;30542;47.928;2.138;2022-09-14T19:08:09;11.00;;;7.00;;
44824;SDS011;30542;47.928;2.138;2022-09-14T19:13:12;9.95;;;7.78;;
44824;SDS011;30542;47.928;2.138;2022-09-14T19:18:12;9.67;;;7.30;;
44824;SDS011;30542;47.928;2.138;2022-09-14T19:23:13;9.57;;;7.37;;
44824;SDS011;30542;47.928;2.138;2022-09-14T19:28:13;10.93;;;7.60;;
44824;SDS011;30542;47.928;2.138;2022-09-14T19:33:13;10.60;;;7.43;;
44824;SDS011;30542;47.928;2.138;2022-09-14T19:38:14;9.40;;;7.27;;
44824;SDS011;30542;47.928;2.138;2022-09-14T19:43:14;11.30;;;7.87;;
44824;SDS011;30542;47.928;2.138;2022-09-14T19:48:14;9.23;;;7.20;;
44824;SDS011;30542;47.928;2.138;2022-09-14T19:53:15;10.73;;;7.40;;
44824;SDS011;30542;47.928;2.138;2022-09-14T19:58:15;10.03;;;7.10;;
44824;SDS011;30542;47.928;2.138;2022-09-14T20:03:16;7.87;;;6.93;;
44824;SDS011;30542;47.928;2.138;2022-09-14T20:08:16;11.02;;;7.47;;
44824;SDS011;30542;47.928;2.138;2022-09-14T20:13:17;9.17;;;7.03;;
44824;SDS011;30542;47.928;2.138;2022-09-14T20:18:17;10.00;;;7.97;;
44824;SDS011;30542;47.928;2.138;2022-09-14T20:23:17;9.80;;;7.20;;
44824;SDS011;30542;47.928;2.138;2022-09-14T20:28:19;10.00;;;7.20;;
44824;SDS011;30542;47.928;2.138;2022-09-14T20:33:24;9.88;;;7.60;;
44824;SDS011;30542;47.928;2.138;2022-09-14T20:38:25;7.70;;;6.78;;
44824;SDS011;30542;47.928;2.138;2022-09-14T20:43:30;7.93;;;6.78;;
44824;SDS011;30542;47.928;2.138;2022-09-14T20:48:33;11.50;;;7.32;;
44824;SDS011;30542;47.928;2.138;2022-09-14T20:53:34;9.43;;;6.80;;
44824;SDS011;30542;47.928;2.138;2022-09-14T20:58:36;9.10;;;6.85;;
44824;SDS011;30542;47.928;2.138;2022-09-14T21:03:37;8.45;;;7.55;;
44824;SDS011;30542;47.928;2.138;2022-09-14T21:08:39;8.48;;;6.95;;
44824;SDS011;30542;47.928;2.138;2022-09-14T21:13:41;10.93;;;7.28;;
44824;SDS011;30542;47.928;2.138;2022-09-14T21:18:43;8.18;;;6.88;;
44824;SDS011;30542;47.928;2.138;2022-09-14T21:23:45;8.95;;;6.60;;
44824;SDS011;30542;47.928;2.138;2022-09-14T21:28:47;7.57;;;6.28;;
44824;SDS011;30542;47.928;2.138;2022-09-14T21:33:48;7.07;;;6.37;;
44824;SDS011;30542;47.928;2.138;2022-09-14T21:38:54;7.28;;;6.25;;
44824;SDS011;30542;47.928;2.138;2022-09-14T21:43:58;8.82;;;6.40;;
44824;SDS011;30542;47.928;2.138;2022-09-14T21:48:59;6.67;;;5.97;;
44824;SDS011;30542;47.928;2.138;2022-09-14T21:54:03;7.22;;;6.53;;
44824;SDS011;30542;47.928;2.138;2022-09-14T21:59:10;5.85;;;5.30;;
44824;SDS011;30542;47.928;2.138;2022-09-14T22:04:21;6.43;;;5.43;;
44824;SDS011;30542;47.928;2.138;2022-09-14T22:09:24;6.30;;;5.15;;
44824;SDS011;30542;47.928;2.138;2022-09-14T22:14:27;6.60;;;4.70;;
44824;SDS011;30542;47.928;2.138;2022-09-14T22:19:28;6.93;;;4.93;;
44824;SDS011;30542;47.928;2.138;2022-09-14T22:24:31;5.43;;;4.93;;
44824;SDS011;30542;47.928;2.138;2022-09-14T22:29:33;5.70;;;4.78;;
44824;SDS011;30542;47.928;2.138;2022-09-14T22:34:34;7.97;;;5.10;;
44824;SDS011;30542;47.928;2.138;2022-09-14T22:39:34;5.38;;;4.53;;
44824;SDS011;30542;47.928;2.138;2022-09-14T22:44:35;5.03;;;4.07;;
44824;SDS011;30542;47.928;2.138;2022-09-14T22:49:35;5.07;;;4.47;;
44824;SDS011;30542;47.928;2.138;2022-09-14T22:54:36;5.30;;;4.47;;
44824;SDS011;30542;47.928;2.138;2022-09-14T22:59:36;5.30;;;3.77;;
44824;SDS011;30542;47.928;2.138;2022-09-14T23:04:37;4.45;;;3.67;;
44824;SDS011;30542;47.928;2.138;2022-09-14T23:09:38;4.37;;;3.33;;
44824;SDS011;30542;47.928;2.138;2022-09-14T23:14:38;3.92;;;3.60;;
44824;SDS011;30542;47.928;2.138;2022-09-14T23:19:38;3.93;;;3.53;;
44824;SDS011;30542;47.928;2.138;2022-09-14T23:24:39;4.77;;;3.53;;
44824;SDS011;30542;47.928;2.138;2022-09-14T23:29:39;5.88;;;3.42;;
44824;SDS011;30542;47.928;2.138;2022-09-14T23:34:40;5.77;;;3.63;;
44824;SDS011;30542;47.928;2.138;2022-09-14T23:39:40;4.53;;;2.97;;
44824;SDS011;30542;47.928;2.138;2022-09-14T23:44:40;3.80;;;3.40;;
44824;SDS011;30542;47.928;2.138;2022-09-14T23:49:41;4.37;;;3.10;;
44824;SDS011;30542;47.928;2.138;2022-09-14T23:54:41;3.40;;;3.10;;
44824;SDS011;30542;47.928;2.138;2022-09-14T23:59:41;3.50;;;2.87;;
